createdAt,value
2022-09-03T00:00:21.549Z,13.29
2022-09-03T00:01:26.118Z,16.78
2022-09-03T00:02:33.399Z,17.99
2022-09-03T00:03:36.872Z,16.71
2022-09-03T00:04:54.411Z,16.54
2022-09-03T00:07:23.908Z,18.61
2022-09-03T00:08:26.773Z,15.49
2022-09-03T00:09:29.883Z,15.37
2022-09-03T00:10:33.867Z,16.37
2022-09-03T00:11:43.397Z,16.94
2022-09-03T00:12:46.559Z,19.53
2022-09-03T00:13:52.198Z,19.58
2022-09-03T00:14:55.523Z,19.47
2022-09-03T00:15:58.625Z,18.43
2022-09-03T00:17:02.357Z,17.32
2022-09-03T00:18:06.157Z,20.12
2022-09-03T00:19:10.772Z,23.29
2022-09-03T00:20:26.650Z,20.39
2022-09-03T00:21:29.937Z,24.41
2022-09-03T00:22:33.950Z,22.90
2022-09-03T00:23:37.037Z,20.19
2022-09-03T00:24:40.088Z,22.79
2022-09-03T00:25:43.693Z,18.88
2022-09-03T00:26:47.079Z,18.76
2022-09-03T00:27:50.257Z,22.42
2022-09-03T00:28:53.138Z,19.81
2022-09-03T00:29:56.415Z,22.98
2022-09-03T00:30:59.253Z,18.45
2022-09-03T00:32:02.470Z,18.73
2022-09-03T00:33:05.764Z,16.87
2022-09-03T00:34:08.642Z,22.18
2022-09-03T00:35:11.938Z,19.65
2022-09-03T00:36:14.899Z,18.31
2022-09-03T00:37:17.683Z,16.85
2022-09-03T00:38:21.996Z,21.52
2022-09-03T00:39:24.704Z,21.18
2022-09-03T00:40:28.404Z,15.00
2022-09-03T00:41:31.311Z,22.60
2022-09-03T00:42:35.014Z,15.92
2022-09-03T00:43:38.004Z,15.78
2022-09-03T00:44:40.869Z,16.24
2022-09-03T00:45:43.527Z,21.25
2022-09-03T00:46:46.453Z,19.82
2022-09-03T00:47:49.910Z,19.25
2022-09-03T00:48:52.972Z,19.54
2022-09-03T00:49:56.061Z,19.89
2022-09-03T00:50:59.131Z,17.80
2022-09-03T00:52:02.426Z,20.14
2022-09-03T00:54:22.906Z,18.40
2022-09-03T00:55:26.004Z,25.18
2022-09-03T00:56:28.965Z,21.70
2022-09-03T00:57:31.742Z,26.25
2022-09-03T00:58:34.819Z,20.51
2022-09-03T00:59:37.804Z,18.09
2022-09-03T01:00:40.884Z,18.97
2022-09-03T01:01:43.939Z,22.62
2022-09-03T01:02:47.081Z,21.55
2022-09-03T01:03:50.320Z,21.64
2022-09-03T01:04:53.395Z,18.36
2022-09-03T01:06:01.004Z,21.16
2022-09-03T01:07:00.998Z,19.48
2022-09-03T01:08:03.867Z,19.95
2022-09-03T01:09:06.941Z,18.16
2022-09-03T01:10:09.920Z,19.44
2022-09-03T01:11:12.789Z,16.88
2022-09-03T01:12:15.772Z,24.38
2022-09-03T01:13:19.669Z,19.26
2022-09-03T01:14:22.952Z,18.19
2022-09-03T01:15:25.934Z,17.89
2022-09-03T01:16:29.121Z,14.81
2022-09-03T01:17:31.885Z,19.42
2022-09-03T01:18:34.961Z,18.62
2022-09-03T01:19:37.847Z,20.99
2022-09-03T01:20:40.721Z,19.62
2022-09-03T01:21:43.584Z,23.08
2022-09-03T01:22:46.676Z,18.53
2022-09-03T01:23:49.643Z,15.49
2022-09-03T01:24:53.045Z,17.68
2022-09-03T01:25:55.919Z,16.95
2022-09-03T01:26:58.779Z,19.08
2022-09-03T01:29:23.158Z,15.50
2022-09-03T01:30:25.945Z,18.98
2022-09-03T01:31:28.640Z,19.72
2022-09-03T01:32:31.289Z,15.68
2022-09-03T01:33:33.955Z,14.67
2022-09-03T01:34:36.712Z,18.36
2022-09-03T01:35:40.000Z,14.99
2022-09-03T01:36:42.671Z,17.28
2022-09-03T01:37:45.345Z,15.73
2022-09-03T01:38:49.237Z,15.94
2022-09-03T01:39:52.032Z,17.44
2022-09-03T01:40:54.881Z,18.70
2022-09-03T01:41:57.762Z,18.18
2022-09-03T01:43:00.528Z,19.50
2022-09-03T01:44:03.508Z,18.48
2022-09-03T01:45:06.176Z,14.82
2022-09-03T01:46:09.050Z,17.39
2022-09-03T01:47:13.271Z,16.09
2022-09-03T01:48:16.065Z,15.93
2022-09-03T01:49:18.912Z,16.69
2022-09-03T01:50:21.681Z,16.96
2022-09-03T01:51:24.449Z,20.47
2022-09-03T01:52:27.430Z,14.09
2022-09-03T01:53:30.300Z,14.97
2022-09-03T01:54:33.277Z,15.75
2022-09-03T01:55:35.951Z,14.72
2022-09-03T01:56:38.720Z,11.84
2022-09-03T01:57:42.024Z,17.12
2022-09-03T01:58:44.888Z,12.08
2022-09-03T01:59:48.060Z,14.23
2022-09-03T02:00:50.943Z,16.45
2022-09-03T02:01:53.672Z,15.98
2022-09-03T02:02:56.407Z,17.99
2022-09-03T02:03:59.372Z,17.14
2022-09-03T02:05:02.336Z,16.03
2022-09-03T02:06:05.108Z,16.56
2022-09-03T02:07:07.979Z,20.15
2022-09-03T02:08:11.772Z,22.41
2022-09-03T02:09:14.547Z,17.96
2022-09-03T02:10:17.445Z,18.08
2022-09-03T02:11:20.600Z,24.94
2022-09-03T02:12:24.088Z,15.18
2022-09-03T02:13:26.972Z,16.30
2022-09-03T02:14:29.848Z,18.23
2022-09-03T02:15:32.670Z,15.22
2022-09-03T02:16:35.604Z,16.33
2022-09-03T02:17:38.366Z,17.03
2022-09-03T02:18:41.134Z,12.62
2022-09-03T02:19:44.008Z,15.18
2022-09-03T02:20:46.787Z,14.37
2022-09-03T02:21:49.860Z,14.86
2022-09-03T02:22:52.635Z,14.69
2022-09-03T02:23:55.608Z,16.67
2022-09-03T02:24:58.689Z,19.32
2022-09-03T02:26:01.664Z,15.33
2022-09-03T02:27:04.748Z,14.33
2022-09-03T02:28:11.197Z,17.95
2022-09-03T02:29:12.230Z,12.33
2022-09-03T02:30:15.517Z,10.39
2022-09-03T02:31:18.390Z,12.97
2022-09-03T02:32:21.693Z,14.15
2022-09-03T02:33:24.552Z,13.42
2022-09-03T02:34:27.321Z,13.11
2022-09-03T02:35:30.001Z,12.35
2022-09-03T02:36:32.661Z,13.69
2022-09-03T02:37:35.328Z,15.27
2022-09-03T02:38:38.108Z,15.61
2022-09-03T02:39:40.965Z,17.88
2022-09-03T02:40:43.650Z,18.76
2022-09-03T02:41:46.418Z,17.64
2022-09-03T02:42:49.605Z,16.50
2022-09-03T02:43:52.370Z,17.86
2022-09-03T02:44:55.463Z,15.43
2022-09-03T02:45:58.196Z,16.14
2022-09-03T02:47:00.902Z,18.13
2022-09-03T02:48:03.772Z,15.20
2022-09-03T02:49:06.545Z,15.26
2022-09-03T02:50:09.416Z,14.85
2022-09-03T02:51:14.188Z,12.33
2022-09-03T02:52:16.701Z,12.19
2022-09-03T02:53:19.471Z,12.83
2022-09-03T02:54:22.241Z,11.08
2022-09-03T02:55:25.122Z,13.18
2022-09-03T02:56:27.806Z,12.25
2022-09-03T02:57:30.460Z,13.23
2022-09-03T02:58:33.445Z,12.26
2022-09-03T02:59:36.114Z,10.62
2022-09-03T03:00:38.880Z,13.21
2022-09-03T03:01:41.965Z,12.51
2022-09-03T03:02:44.934Z,15.42
2022-09-03T03:03:48.028Z,16.47
2022-09-03T03:04:50.683Z,13.18
2022-09-03T03:05:53.351Z,11.26
2022-09-03T03:06:56.240Z,16.10
2022-09-03T03:07:59.007Z,14.22
2022-09-03T03:09:01.881Z,12.47
2022-09-03T03:10:04.648Z,13.04
2022-09-03T03:11:07.417Z,9.77
2022-09-03T03:12:10.208Z,8.43
2022-09-03T03:13:12.970Z,8.11
2022-09-03T03:14:15.968Z,9.98
2022-09-03T03:15:18.618Z,10.02
2022-09-03T03:16:21.333Z,8.83
2022-09-03T03:17:24.167Z,9.38
2022-09-03T03:18:26.830Z,9.69
2022-09-03T03:19:29.707Z,9.75
2022-09-03T03:20:32.469Z,10.54
2022-09-03T03:21:35.346Z,13.78
2022-09-03T03:22:37.953Z,13.22
2022-09-03T03:23:40.608Z,13.09
2022-09-03T03:24:43.458Z,11.92
2022-09-03T03:25:46.230Z,12.33
2022-09-03T03:26:49.104Z,11.48
2022-09-03T03:27:51.886Z,11.54
2022-09-03T03:28:54.545Z,11.12
2022-09-03T03:29:57.224Z,13.08
2022-09-03T03:31:00.065Z,10.64
2022-09-03T03:32:02.759Z,14.94
2022-09-03T03:33:05.533Z,9.20
2022-09-03T03:34:08.517Z,12.62
2022-09-03T03:35:11.819Z,12.96
2022-09-03T03:36:14.776Z,12.40
2022-09-03T03:37:17.746Z,15.45
2022-09-03T03:38:20.633Z,15.92
2022-09-03T03:39:23.619Z,12.81
2022-09-03T03:40:26.683Z,13.66
2022-09-03T03:41:29.570Z,14.20
2022-09-03T03:42:33.365Z,10.49
2022-09-03T03:43:36.018Z,11.28
2022-09-03T03:44:39.308Z,10.24
2022-09-03T03:45:42.179Z,12.20
2022-09-03T03:46:44.852Z,18.05
2022-09-03T03:47:47.528Z,11.18
2022-09-03T03:48:50.296Z,13.99
2022-09-03T03:49:53.070Z,15.65
2022-09-03T03:50:55.739Z,19.20
2022-09-03T03:51:58.507Z,10.58
2022-09-03T03:53:01.754Z,10.75
2022-09-03T03:54:05.648Z,13.07
2022-09-03T03:55:08.463Z,14.53
2022-09-03T03:56:11.350Z,11.99
2022-09-03T03:57:14.419Z,11.62
2022-09-03T03:58:17.087Z,11.23
2022-09-03T03:59:19.964Z,11.01
2022-09-03T04:00:22.865Z,14.65
2022-09-03T04:01:27.280Z,14.61
2022-09-03T04:02:30.195Z,13.32
2022-09-03T04:03:32.898Z,11.31
2022-09-03T04:04:35.766Z,15.12
2022-09-03T04:05:43.295Z,15.65
2022-09-03T04:06:42.960Z,13.84
2022-09-03T04:07:45.730Z,17.00
2022-09-03T04:08:48.491Z,14.45
2022-09-03T04:09:52.507Z,15.34
2022-09-03T04:10:55.372Z,13.90
2022-09-03T04:11:58.246Z,16.92
2022-09-03T04:13:00.925Z,17.85
2022-09-03T04:14:03.687Z,17.47
2022-09-03T04:15:06.566Z,15.22
2022-09-03T04:16:09.384Z,15.48
2022-09-03T04:17:12.211Z,21.48
2022-09-03T04:18:16.111Z,23.18
2022-09-03T04:19:18.781Z,18.95
2022-09-03T04:20:21.447Z,18.71
2022-09-03T04:21:24.218Z,22.00
2022-09-03T04:22:28.218Z,19.38
2022-09-03T04:23:31.000Z,15.00
2022-09-03T04:24:33.654Z,16.74
2022-09-03T04:25:36.427Z,15.82
2022-09-03T04:26:39.303Z,16.65
2022-09-03T04:27:42.079Z,15.63
2022-09-03T04:28:44.849Z,15.02
2022-09-03T04:29:47.934Z,17.12
2022-09-03T04:30:50.736Z,17.45
2022-09-03T04:31:53.472Z,17.68
2022-09-03T04:32:56.983Z,20.16
2022-09-03T04:33:59.630Z,18.51
2022-09-03T04:35:02.305Z,16.30
2022-09-03T04:36:05.083Z,16.72
2022-09-03T04:37:07.957Z,17.92
2022-09-03T04:38:10.926Z,16.85
2022-09-03T04:39:13.698Z,16.93
2022-09-03T04:40:16.467Z,18.06
2022-09-03T04:41:19.139Z,16.94
2022-09-03T04:42:21.920Z,14.45
2022-09-03T04:43:24.686Z,20.08
2022-09-03T04:44:27.574Z,18.34
2022-09-03T04:45:30.345Z,21.62
2022-09-03T04:46:33.121Z,18.34
2022-09-03T04:47:35.877Z,20.13
2022-09-03T04:48:38.763Z,17.95
2022-09-03T04:49:41.528Z,15.60
2022-09-03T04:50:44.299Z,20.48
2022-09-03T04:51:47.306Z,16.63
2022-09-03T04:52:50.153Z,11.51
2022-09-03T04:53:53.455Z,17.90
2022-09-03T04:54:56.622Z,14.88
2022-09-03T04:55:59.289Z,19.78
2022-09-03T04:57:02.058Z,18.36
2022-09-03T04:58:04.938Z,18.85
2022-09-03T04:59:07.703Z,18.39
2022-09-03T05:00:11.198Z,21.38
2022-09-03T05:01:14.023Z,16.78
2022-09-03T05:02:16.914Z,22.28
2022-09-03T05:03:19.822Z,21.02
2022-09-03T05:04:22.489Z,18.59
2022-09-03T05:05:25.259Z,18.98
2022-09-03T05:06:28.140Z,25.23
2022-09-03T05:07:31.219Z,20.95
2022-09-03T05:09:51.097Z,22.42
2022-09-03T05:10:55.158Z,18.87
2022-09-03T05:11:58.193Z,26.59
2022-09-03T05:13:00.848Z,21.25
2022-09-03T05:14:03.622Z,24.70
2022-09-03T05:15:06.595Z,20.45
2022-09-03T05:16:09.412Z,23.29
2022-09-03T05:17:12.163Z,19.03
2022-09-03T05:18:15.102Z,21.51
2022-09-03T05:19:17.888Z,23.08
2022-09-03T05:20:20.660Z,21.87
2022-09-03T05:21:25.385Z,22.52
2022-09-03T05:22:28.269Z,20.89
2022-09-03T05:23:34.368Z,22.99
2022-09-03T05:24:35.649Z,25.66
2022-09-03T05:25:38.922Z,26.60
2022-09-03T05:26:41.697Z,20.37
2022-09-03T05:27:44.467Z,19.37
2022-09-03T05:28:47.855Z,21.30
2022-09-03T05:29:50.736Z,19.17
2022-09-03T05:30:53.809Z,26.14
2022-09-03T05:31:57.186Z,21.35
2022-09-03T05:33:00.074Z,21.18
2022-09-03T05:34:03.161Z,17.60
2022-09-03T05:35:06.226Z,23.55
2022-09-03T05:36:09.311Z,20.99
2022-09-03T05:37:12.403Z,23.98
2022-09-03T05:38:15.367Z,19.82
2022-09-03T05:39:18.327Z,21.32
2022-09-03T05:40:21.325Z,21.28
2022-09-03T05:41:24.399Z,19.87
2022-09-03T05:42:27.488Z,20.70
2022-09-03T05:43:31.986Z,20.30
2022-09-03T05:44:35.070Z,15.50
2022-09-03T05:45:37.932Z,19.02
2022-09-03T05:46:40.922Z,18.72
2022-09-03T05:47:43.794Z,15.99
2022-09-03T05:48:46.668Z,17.36
2022-09-03T05:49:49.548Z,15.73
2022-09-03T05:50:52.519Z,18.05
2022-09-03T05:51:55.599Z,14.05
2022-09-03T05:52:58.685Z,11.99
2022-09-03T05:54:01.664Z,12.59
2022-09-03T05:55:04.837Z,14.71
2022-09-03T05:56:07.620Z,14.48
2022-09-03T05:57:10.788Z,12.18
2022-09-03T05:58:13.668Z,11.88
2022-09-03T05:59:16.655Z,16.35
2022-09-03T06:00:19.625Z,13.58
2022-09-03T06:01:22.606Z,14.75
2022-09-03T06:02:26.122Z,15.25
2022-09-03T06:03:29.509Z,12.46
2022-09-03T06:04:32.669Z,11.55
2022-09-03T06:05:35.949Z,11.62
2022-09-03T06:06:38.921Z,12.28
2022-09-03T06:07:42.102Z,12.15
2022-09-03T06:08:44.973Z,13.89
2022-09-03T06:09:48.172Z,12.22
2022-09-03T06:10:50.825Z,12.92
2022-09-03T06:11:53.705Z,14.32
2022-09-03T06:12:56.881Z,13.55
2022-09-03T06:13:59.658Z,13.41
2022-09-03T06:15:02.832Z,10.25
2022-09-03T06:16:05.558Z,11.61
2022-09-03T06:17:08.283Z,14.48
2022-09-03T06:18:11.357Z,14.93
2022-09-03T06:19:14.254Z,11.10
2022-09-03T06:20:16.916Z,10.37
2022-09-03T06:21:19.679Z,12.81
2022-09-03T06:23:39.252Z,12.57
2022-09-03T06:24:43.552Z,11.24
2022-09-03T06:25:46.330Z,13.83
2022-09-03T06:26:49.511Z,12.82
2022-09-03T06:27:52.290Z,14.34
2022-09-03T06:28:55.056Z,12.70
2022-09-03T06:29:57.822Z,13.95
2022-09-03T06:31:00.902Z,14.56
2022-09-03T06:32:03.727Z,12.18
2022-09-03T06:33:06.467Z,17.80
2022-09-03T06:34:09.119Z,17.89
2022-09-03T06:35:11.891Z,11.21
2022-09-03T06:36:14.661Z,12.65
2022-09-03T06:37:17.432Z,14.88
2022-09-03T06:38:20.323Z,16.91
2022-09-03T06:39:23.182Z,18.99
2022-09-03T06:40:25.907Z,16.12
2022-09-03T06:41:28.748Z,16.25
2022-09-03T06:42:33.059Z,17.17
2022-09-03T06:43:35.910Z,14.45
2022-09-03T06:44:38.686Z,16.25
2022-09-03T06:45:41.492Z,17.17
2022-09-03T06:46:44.231Z,17.64
2022-09-03T06:47:46.941Z,14.62
2022-09-03T06:48:49.686Z,14.52
2022-09-03T06:49:52.545Z,16.39
2022-09-03T06:50:55.320Z,18.98
2022-09-03T06:51:58.189Z,14.87
2022-09-03T06:53:00.859Z,17.94
2022-09-03T06:54:03.740Z,17.65
2022-09-03T06:55:06.409Z,17.32
2022-09-03T06:56:09.079Z,16.38
2022-09-03T06:57:11.750Z,18.66
2022-09-03T06:58:14.525Z,15.20
2022-09-03T06:59:17.699Z,14.02
2022-09-03T07:00:20.985Z,13.16
2022-09-03T07:01:23.874Z,15.30
2022-09-03T07:02:26.598Z,23.43
2022-09-03T07:03:29.526Z,17.92
2022-09-03T07:04:32.178Z,14.68
2022-09-03T07:05:34.849Z,13.54
2022-09-03T07:06:37.618Z,15.41
2022-09-03T07:07:40.409Z,13.34
2022-09-03T07:08:43.157Z,15.23
2022-09-03T07:09:48.331Z,14.04
2022-09-03T07:10:50.444Z,14.36
2022-09-03T07:11:53.110Z,14.03
2022-09-03T07:12:56.109Z,12.35
2022-09-03T07:13:58.863Z,9.07
2022-09-03T07:15:01.739Z,12.85
2022-09-03T07:16:04.687Z,9.91
2022-09-03T07:17:07.481Z,10.74
2022-09-03T07:18:10.186Z,16.32
2022-09-03T07:19:12.721Z,13.92
2022-09-03T07:20:15.599Z,14.23
2022-09-03T07:21:18.577Z,13.56
2022-09-03T07:22:21.357Z,13.26
2022-09-03T07:23:25.559Z,13.94
2022-09-03T07:24:28.224Z,10.88
2022-09-03T07:25:30.890Z,15.27
2022-09-03T07:26:33.686Z,12.50
2022-09-03T07:27:36.335Z,13.82
2022-09-03T07:28:39.105Z,12.14
2022-09-03T07:29:41.883Z,11.32
2022-09-03T07:30:44.763Z,8.25
2022-09-03T07:31:47.503Z,13.03
2022-09-03T07:32:50.215Z,11.55
2022-09-03T07:33:52.968Z,10.16
2022-09-03T07:34:55.846Z,10.58
2022-09-03T07:35:58.616Z,10.78
2022-09-03T07:37:01.389Z,11.18
2022-09-03T07:38:04.169Z,10.34
2022-09-03T07:39:07.138Z,10.66
2022-09-03T07:40:10.124Z,12.72
2022-09-03T07:41:13.106Z,16.48
2022-09-03T07:42:17.410Z,12.89
2022-09-03T07:43:22.119Z,16.19
2022-09-03T07:44:26.540Z,12.96
2022-09-03T07:45:29.199Z,13.79
2022-09-03T07:46:32.096Z,12.68
2022-09-03T07:47:34.857Z,11.35
2022-09-03T07:48:38.131Z,12.61
2022-09-03T07:49:41.006Z,14.75
2022-09-03T07:50:43.773Z,17.60
2022-09-03T07:51:46.696Z,17.92
2022-09-03T07:52:49.522Z,14.12
2022-09-03T07:53:52.192Z,12.07
2022-09-03T07:54:54.970Z,11.03
2022-09-03T07:55:57.635Z,15.36
2022-09-03T07:57:00.412Z,11.15
2022-09-03T07:58:03.859Z,15.92
2022-09-03T07:59:06.572Z,15.81
2022-09-03T08:00:09.238Z,15.88
2022-09-03T08:01:12.269Z,11.97
2022-09-03T08:02:15.296Z,12.39
2022-09-03T08:03:18.065Z,14.27
2022-09-03T08:04:20.738Z,11.24
2022-09-03T08:05:23.732Z,10.59
2022-09-03T08:06:26.497Z,15.18
2022-09-03T08:07:29.161Z,10.15
2022-09-03T08:08:35.625Z,9.68
2022-09-03T08:09:36.134Z,10.65
2022-09-03T08:10:38.918Z,8.45
2022-09-03T08:11:41.891Z,9.86
2022-09-03T08:12:44.871Z,16.62
2022-09-03T08:13:47.637Z,13.83
2022-09-03T08:14:50.424Z,13.58
2022-09-03T08:15:53.130Z,12.31
2022-09-03T08:16:55.859Z,12.35
2022-09-03T08:18:03.467Z,14.54
2022-09-03T08:19:02.843Z,10.96
2022-09-03T08:20:05.501Z,12.37
2022-09-03T08:21:08.267Z,12.34
2022-09-03T08:22:11.043Z,13.09
2022-09-03T08:23:13.871Z,13.47
2022-09-03T08:24:16.485Z,12.52
2022-09-03T08:26:36.255Z,13.70
2022-09-03T08:27:39.028Z,10.58
2022-09-03T08:28:42.017Z,11.88
2022-09-03T08:29:44.677Z,13.08
2022-09-03T08:30:47.348Z,10.75
2022-09-03T08:31:50.376Z,13.08
2022-09-03T08:32:53.097Z,12.51
2022-09-03T08:33:55.867Z,10.40
2022-09-03T08:34:58.640Z,10.41
2022-09-03T08:36:01.415Z,10.35
2022-09-03T08:37:04.493Z,13.72
2022-09-03T08:38:08.941Z,10.50
2022-09-03T08:39:11.519Z,10.43
2022-09-03T08:40:17.311Z,9.65
2022-09-03T08:41:20.402Z,10.42
2022-09-03T08:42:23.684Z,12.57
2022-09-03T08:43:26.557Z,13.77
2022-09-03T08:44:29.633Z,12.42
2022-09-03T08:45:32.623Z,10.59
2022-09-03T08:46:35.567Z,10.77
2022-09-03T08:47:38.363Z,11.62
2022-09-03T08:48:41.236Z,10.95
2022-09-03T08:49:44.009Z,11.01
2022-09-03T08:50:46.880Z,10.25
2022-09-03T08:51:49.565Z,11.00
2022-09-03T08:52:52.427Z,11.29
2022-09-03T08:53:55.405Z,14.35
2022-09-03T08:54:58.067Z,12.00
2022-09-03T08:56:00.840Z,14.64
2022-09-03T08:57:03.618Z,13.65
2022-09-03T08:58:06.492Z,12.75
2022-09-03T08:59:09.160Z,12.92
2022-09-03T09:00:11.825Z,9.40
2022-09-03T09:01:14.607Z,12.44
2022-09-03T09:02:17.668Z,14.47
2022-09-03T09:03:20.459Z,11.74
2022-09-03T09:04:25.887Z,17.61
2022-09-03T09:05:34.599Z,16.47
2022-09-03T09:06:37.678Z,15.42
2022-09-03T09:07:40.481Z,16.31
2022-09-03T09:08:43.535Z,16.70
2022-09-03T09:09:46.208Z,17.50
2022-09-03T09:10:48.974Z,20.05
2022-09-03T09:11:57.585Z,19.45
2022-09-03T09:13:06.096Z,18.16
2022-09-03T09:14:09.066Z,21.37
2022-09-03T09:15:12.040Z,21.27
2022-09-03T09:16:15.234Z,19.98
2022-09-03T09:17:18.204Z,15.95
2022-09-03T09:18:21.076Z,21.66
2022-09-03T09:19:24.172Z,21.50
2022-09-03T09:20:27.128Z,24.41
2022-09-03T09:21:32.768Z,24.48
2022-09-03T09:22:35.748Z,22.21
2022-09-03T09:23:38.421Z,20.18
2022-09-03T09:24:41.807Z,17.21
2022-09-03T09:25:47.545Z,18.20
2022-09-03T09:26:54.433Z,19.26
2022-09-03T09:27:56.985Z,17.09
2022-09-03T09:29:00.521Z,18.99
2022-09-03T09:30:04.502Z,20.75
2022-09-03T09:31:09.128Z,18.58
2022-09-03T09:32:16.513Z,16.16
2022-09-03T09:33:20.881Z,14.30
2022-09-03T09:34:24.176Z,16.46
2022-09-03T09:35:27.671Z,14.15
2022-09-03T09:36:31.039Z,14.85
2022-09-03T09:37:34.323Z,14.84
2022-09-03T09:38:37.415Z,12.97
2022-09-03T09:39:45.964Z,8.30
2022-09-03T09:40:48.887Z,9.67
2022-09-03T09:41:52.169Z,9.48
2022-09-03T09:42:55.246Z,8.30
2022-09-03T09:43:58.631Z,10.08
2022-09-03T09:45:01.732Z,10.75
2022-09-03T09:46:04.737Z,12.96
2022-09-03T09:47:13.919Z,13.66
2022-09-03T09:48:17.095Z,10.00
2022-09-03T09:49:20.280Z,9.41
2022-09-03T09:50:27.319Z,12.32
2022-09-03T09:51:28.386Z,13.90
2022-09-03T09:52:34.362Z,12.12
2022-09-03T09:53:37.305Z,12.93
2022-09-03T09:54:40.217Z,15.00
2022-09-03T09:55:45.620Z,13.22
2022-09-03T09:56:51.668Z,13.83
2022-09-03T09:57:54.891Z,10.78
2022-09-03T09:59:00.497Z,14.27
2022-09-03T10:00:03.776Z,16.33
2022-09-03T10:01:07.091Z,14.78
2022-09-03T10:02:09.859Z,16.75
2022-09-03T10:03:14.304Z,14.08
2022-09-03T10:04:17.121Z,16.12
2022-09-03T10:05:20.100Z,11.67
2022-09-03T10:06:25.635Z,13.12
2022-09-03T10:07:28.784Z,17.15
2022-09-03T10:08:37.109Z,11.32
2022-09-03T10:09:39.787Z,15.41
2022-09-03T10:10:42.483Z,14.02
2022-09-03T10:11:45.540Z,11.55
2022-09-03T10:12:51.286Z,10.86
2022-09-03T10:13:57.007Z,11.27
2022-09-03T10:14:59.893Z,12.25
2022-09-03T10:16:03.131Z,12.63
2022-09-03T10:17:08.723Z,12.93
2022-09-03T10:18:12.098Z,11.83
2022-09-03T10:19:15.184Z,12.68
2022-09-03T10:20:18.062Z,14.07
2022-09-03T10:21:23.820Z,16.33
2022-09-03T10:22:28.821Z,16.75
2022-09-03T10:23:33.025Z,17.71
2022-09-03T10:24:35.905Z,18.27
2022-09-03T10:25:38.577Z,23.79
2022-09-03T10:26:44.410Z,18.21
2022-09-03T10:27:47.281Z,22.77
2022-09-03T10:28:51.597Z,19.42
2022-09-03T10:29:55.898Z,17.46
2022-09-03T10:30:58.748Z,17.18
2022-09-03T10:32:01.555Z,19.04
2022-09-03T10:33:10.055Z,17.87
2022-09-03T10:34:13.134Z,17.04
2022-09-03T10:35:16.119Z,13.95
2022-09-03T10:36:19.204Z,12.50
2022-09-03T10:37:22.186Z,15.00
2022-09-03T10:38:25.088Z,14.35
2022-09-03T10:39:30.433Z,14.63
2022-09-03T10:40:36.021Z,12.59
2022-09-03T10:41:41.347Z,12.53
2022-09-03T10:42:44.356Z,12.17
2022-09-03T10:43:47.406Z,14.44
2022-09-03T10:44:50.177Z,17.02
2022-09-03T10:45:59.014Z,12.42
2022-09-03T10:47:01.965Z,12.91
2022-09-03T10:48:04.848Z,10.84
2022-09-03T10:49:07.923Z,10.09
2022-09-03T10:50:11.922Z,12.39
2022-09-03T10:51:15.099Z,11.83
2022-09-03T10:52:18.089Z,14.22
2022-09-03T10:53:21.163Z,12.62
2022-09-03T10:54:26.804Z,7.98
2022-09-03T10:55:32.450Z,8.28
2022-09-03T10:56:35.519Z,10.00
2022-09-03T10:57:38.429Z,9.42
2022-09-03T10:58:41.688Z,6.82
2022-09-03T10:59:53.567Z,10.11
2022-09-03T11:00:56.437Z,8.30
2022-09-03T11:01:59.313Z,8.52
2022-09-03T11:03:02.243Z,8.35
2022-09-03T11:04:05.265Z,9.48
2022-09-03T11:05:08.046Z,12.90
2022-09-03T11:06:10.731Z,11.43
2022-09-03T11:07:13.688Z,7.99
2022-09-03T11:08:16.729Z,8.99
2022-09-03T11:09:25.373Z,7.47
2022-09-03T11:10:31.472Z,8.83
2022-09-03T11:11:34.404Z,8.73
2022-09-03T11:12:37.802Z,7.98
2022-09-03T11:13:40.671Z,9.68
2022-09-03T11:14:43.653Z,10.81
2022-09-03T11:15:49.225Z,7.92
2022-09-03T11:16:54.507Z,9.81
2022-09-03T11:17:57.409Z,12.13
2022-09-03T11:19:00.365Z,12.42
2022-09-03T11:20:03.447Z,12.18
2022-09-03T11:21:12.223Z,13.02
2022-09-03T11:22:14.030Z,13.22
2022-09-03T11:23:18.519Z,13.61
2022-09-03T11:24:23.233Z,11.65
2022-09-03T11:25:26.319Z,12.05
2022-09-03T11:26:29.391Z,15.01
2022-09-03T11:27:32.362Z,9.58
2022-09-03T11:28:35.348Z,8.97
2022-09-03T11:29:41.409Z,11.05
2022-09-03T11:30:44.414Z,9.61
2022-09-03T11:31:47.146Z,9.31
2022-09-03T11:32:54.273Z,14.25
2022-09-03T11:33:54.429Z,9.66
2022-09-03T11:34:59.859Z,8.98
2022-09-03T11:36:02.643Z,9.52
2022-09-03T11:37:11.551Z,8.95
2022-09-03T11:38:14.438Z,12.48
2022-09-03T11:39:17.378Z,11.65
2022-09-03T11:40:20.286Z,10.38
2022-09-03T11:41:23.162Z,13.18
2022-09-03T11:42:26.339Z,9.30
2022-09-03T11:43:31.975Z,12.03
2022-09-03T11:44:37.417Z,11.85
2022-09-03T11:45:41.789Z,11.73
2022-09-03T11:46:47.487Z,11.93
2022-09-03T11:47:50.243Z,13.36
2022-09-03T11:48:53.311Z,13.73
2022-09-03T11:49:56.498Z,11.13
2022-09-03T11:51:02.460Z,11.35
2022-09-03T11:52:05.538Z,12.96
2022-09-03T11:53:08.830Z,13.22
2022-09-03T11:54:12.100Z,11.02
2022-09-03T11:55:17.837Z,13.26
2022-09-03T11:56:23.505Z,13.58
2022-09-03T11:57:26.363Z,12.49
2022-09-03T11:58:29.223Z,11.72
2022-09-03T11:59:31.989Z,12.22
2022-09-03T12:00:38.058Z,10.61
2022-09-03T12:01:41.027Z,15.34
2022-09-03T12:02:43.848Z,13.43
2022-09-03T12:03:49.631Z,13.08
2022-09-03T12:04:52.730Z,11.03
2022-09-03T12:05:56.919Z,11.94
2022-09-03T12:06:59.690Z,13.32
2022-09-03T12:08:08.200Z,13.88
2022-09-03T12:09:06.457Z,13.03
2022-09-03T12:10:09.339Z,11.84
2022-09-03T12:11:12.311Z,14.13
2022-09-03T12:12:17.954Z,12.33
2022-09-03T12:13:23.918Z,13.64
2022-09-03T12:14:26.777Z,13.96
2022-09-03T12:15:30.076Z,15.88
2022-09-03T12:16:33.040Z,13.52
2022-09-03T12:17:38.886Z,15.66
2022-09-03T12:18:44.311Z,14.78
2022-09-03T12:19:47.216Z,16.81
2022-09-03T12:20:49.964Z,15.45
2022-09-03T12:21:52.729Z,14.79
2022-09-03T12:23:01.344Z,13.99
2022-09-03T12:24:04.011Z,10.04
2022-09-03T12:25:06.779Z,9.84
2022-09-03T12:26:10.990Z,12.53
2022-09-03T12:27:13.879Z,12.03
2022-09-03T12:28:19.504Z,10.98
2022-09-03T12:29:22.386Z,9.46
2022-09-03T12:30:26.950Z,13.79
2022-09-03T12:31:29.774Z,9.88
2022-09-03T12:32:35.202Z,8.57
2022-09-03T12:33:40.433Z,9.07
2022-09-03T12:34:43.331Z,10.28
2022-09-03T12:36:01.399Z,9.41
2022-09-03T12:36:50.281Z,9.22
2022-09-03T12:38:10.047Z,9.48
2022-09-03T12:39:13.401Z,8.98
2022-09-03T12:40:07.335Z,9.36
2022-09-03T12:41:23.463Z,8.29
2022-09-03T12:42:16.232Z,11.17
2022-09-03T12:44:25.778Z,9.56
2022-09-03T12:46:09.837Z,10.40
2022-09-03T12:46:35.981Z,11.29
2022-09-03T12:47:38.927Z,9.92
2022-09-03T12:48:44.036Z,10.38
2022-09-03T12:49:51.830Z,10.39
2022-09-03T12:50:56.474Z,9.94
2022-09-03T12:53:17.539Z,11.95
2022-09-03T12:54:20.432Z,10.01
2022-09-03T12:55:27.418Z,10.03
2022-09-03T12:56:27.709Z,11.86
2022-09-03T12:57:30.678Z,11.32
2022-09-03T12:58:33.449Z,11.89
2022-09-03T12:59:36.337Z,9.87
2022-09-03T13:00:39.307Z,9.69
2022-09-03T13:01:42.313Z,11.10
2022-09-03T13:02:45.275Z,10.11
2022-09-03T13:03:48.539Z,12.98
2022-09-03T13:04:51.407Z,10.26
2022-09-03T13:05:54.197Z,13.90
2022-09-03T13:06:56.974Z,10.66
2022-09-03T13:07:59.938Z,10.52
2022-09-03T13:09:02.814Z,10.09
2022-09-03T13:10:05.576Z,11.25
2022-09-03T13:11:08.700Z,13.58
2022-09-03T13:12:11.837Z,9.09
2022-09-03T13:13:14.730Z,11.77
2022-09-03T13:14:20.272Z,15.28
2022-09-03T13:15:26.111Z,12.13
2022-09-03T13:16:29.400Z,15.51
2022-09-03T13:17:32.460Z,13.81
2022-09-03T13:18:35.337Z,12.94
2022-09-03T13:19:40.901Z,12.78
2022-09-03T13:20:46.518Z,12.49
2022-09-03T13:21:49.306Z,13.96
2022-09-03T13:22:52.068Z,16.85
2022-09-03T13:23:55.354Z,18.14
2022-09-03T13:25:00.822Z,17.55
2022-09-03T13:26:08.064Z,16.75
2022-09-03T13:27:11.247Z,18.68
2022-09-03T13:28:14.937Z,18.65
2022-09-03T13:29:17.772Z,18.25
2022-09-03T13:30:25.137Z,19.02
2022-09-03T13:34:13.615Z,18.73
2022-09-03T13:36:44.188Z,18.65
2022-09-03T13:37:46.862Z,20.18
2022-09-03T13:39:05.057Z,20.82
2022-09-03T13:40:08.177Z,18.76
2022-09-03T13:41:11.555Z,21.03
2022-09-03T13:42:14.521Z,18.49
2022-09-03T13:43:19.496Z,20.29
2022-09-03T13:44:24.388Z,16.79
2022-09-03T13:45:29.900Z,17.06
2022-09-03T13:47:48.651Z,15.04
2022-09-03T13:48:51.525Z,10.66
2022-09-03T13:49:54.570Z,18.18
2022-09-03T13:50:59.851Z,12.93
2022-09-03T13:52:01.601Z,12.23
2022-09-03T13:53:05.184Z,13.24
2022-09-03T13:54:08.484Z,11.01